Pelham, Texas
Current Conditions -  °F | °C
As of 9:50 AM on Thursday 18 Dec 2014 (Local Time) from KCNW Reporting Station
Haze Haze  
Wind Chill: 48°   Ceiling: 300
Heat Index: 48°   Visibility: 1mi
Dew Point: 48°   Wind: 0mph
Humidity: 100%   Direction: NA
Pressure: 30.16"   Gusts: NA
Location:  31.8345°N, 96.8135°W
Report Text: KCNW 181550Z 00000KT 1SM BR OVC003 09/09 A3016
Loading
Personal Weather Stations






























Interactive Weather Map New forecast layout! Learn more

10-Day Weather Forecast

Advertisements
Track Severe Weather on mobile